Weather at Dalian Zhoushuizi International Airport

Public forecast

Using degrees Celsius for public forecast. Weather courtesy of forecast.io.

Current aviation weather report (METAR) for Dalian Zhoushuizi International Airport

2024/05/28 05:00 (retrieved 11 minutes ago)

ZYTL 280500Z 34004MPS 270V020 CAVOK 26/10 Q1008 NOSIG

Closest aviation forecast (TAF) to Dalian Zhoushuizi International Airport

Forecast is more than 12 hours old.

Closest forecast is Pyongyang Sunan International Airport, 193.1 nm (357.6 km) E.

2024/05/27 06:35 (retrieved 23 hours ago)

TAF ZKPY 270410Z 2706/2806 29007G12MPS 9999 SCT027 TX22/2706Z TN11/2721Z BECMG 2711/2713 32004MPS NSC